Time;durP1;ratioP1;P1;durP2;ratioP2;P2;SDS_P1;SDS_P2;PMS_P1;PMS_P2;Temp;Humidity;BMP_temperature;BMP_pressure;BME280_temperature;BME280_humidity;BME280_pressure;Samples;Min_cycle;Max_cycle;Signal;HPM_P1;HPM_P2
2022/04/05 00:03:59;;;;;;;1999.90;999.90;;;;;;;8.10;79.47;99318.22;15487861;28;20400;-64
2022/04/05 00:11:32;;;;;;;1999.90;999.90;;;;;;;8.18;79.77;99339.50;15518971;28;20046;-62
2022/04/05 00:19:06;;;;;;;556.30;285.25;;;;;;;8.14;79.96;99349.72;15487306;28;20042;-63
2022/04/05 00:26:43;;;;;;;129.13;68.43;;;;;;;8.02;80.85;99345.00;15500155;28;20058;-64
2022/04/05 00:34:18;;;;;;;170.80;150.23;;;;;;;7.89;82.72;99353.66;15500761;28;20125;-63
2022/04/05 00:41:52;;;;;;;215.85;180.05;;;;;;;7.82;82.97;99349.50;15515984;28;20081;-63
2022/04/05 00:49:30;;;;;;;1529.55;776.75;;;;;;;7.95;82.82;99360.63;15499497;28;20593;-63
2022/04/05 00:57:09;;;;;;;1598.65;838.92;;;;;;;7.80;83.79;99349.03;15500592;28;20050;-64
2022/04/05 01:04:43;;;;;;;215.77;195.98;;;;;;;7.87;83.51;99355.97;15500425;28;20042;-63
2022/04/05 01:12:16;;;;;;;;;;;;;;;7.92;83.64;99362.13;15500092;28;20132;-64
2022/04/05 01:19:48;;;;;;;1999.90;999.90;;;;;;;7.96;83.73;99371.38;15491150;28;20330;-63
2022/04/05 01:27:27;;;;;;;1111.18;600.50;;;;;;;7.79;84.68;99377.97;15498594;28;20042;-64
2022/04/05 01:35:01;;;;;;;1160.72;643.65;;;;;;;7.77;84.77;99385.84;15482278;28;20054;-63
2022/04/05 01:42:35;;;;;;;1999.90;999.90;;;;;;;7.74;84.51;99382.94;15498187;28;20042;-64
2022/04/05 01:50:16;;;;;;;1999.90;999.90;;;;;;;7.67;82.31;99391.84;15498825;28;20048;-64
2022/04/05 01:57:49;;;;;;;1999.90;999.90;;;;;;;7.76;82.04;99400.06;15505560;28;20041;-63
2022/04/05 02:05:22;;;;;;;1999.90;999.90;;;;;;;7.68;82.42;99385.13;15470989;28;20068;-64
2022/04/05 02:12:58;;;;;;;1999.90;999.90;;;;;;;7.61;82.55;99393.25;15481931;28;20030;-64
2022/04/05 02:20:39;;;;;;;1999.90;999.90;;;;;;;7.58;82.52;99385.59;15436967;28;20035;-64
2022/04/05 02:28:14;;;;;;;1999.90;999.90;;;;;;;7.47;82.34;99384.41;15441298;28;20476;-65
2022/04/05 02:35:53;;;;;;;1999.90;999.90;;;;;;;7.44;81.16;99396.22;15427995;28;20050;-64
2022/04/05 02:43:28;;;;;;;1999.90;999.90;;;;;;;7.27;82.28;99390.84;15434760;28;20105;-63
2022/04/05 02:51:04;;;;;;;1032.68;527.58;;;;;;;6.92;82.62;99400.31;15434694;28;20492;-63
2022/04/05 02:58:41;;;;;;;1999.90;999.90;;;;;;;7.19;81.55;99412.81;15539213;28;20053;-64
2022/04/05 03:06:16;;;;;;;1999.90;999.90;;;;;;;6.85;82.34;99419.47;15522419;28;20137;-65
2022/04/05 03:13:51;;;;;;;1999.90;999.90;;;;;;;7.14;80.78;99434.38;15538892;28;20046;-64
2022/04/05 03:21:24;;;;;;;1999.90;999.90;;;;;;;7.00;80.95;99426.38;15538594;28;20044;-64
2022/04/05 03:29:00;;;;;;;1999.90;999.90;;;;;;;7.04;80.46;99424.53;15555427;28;20034;-64
2022/04/05 03:36:35;;;;;;;1999.90;999.90;;;;;;;7.16;80.09;99432.06;15520956;28;20451;-64
2022/04/05 03:44:09;;;;;;;1999.90;999.90;;;;;;;7.24;79.85;99434.78;15537595;28;20045;-64
2022/04/05 03:51:54;;;;;;;1999.90;999.90;;;;;;;6.92;79.96;99430.84;15554471;28;20561;-64
2022/04/05 03:59:31;;;;;;;1999.90;999.90;;;;;;;6.81;81.48;99454.59;15552375;28;20038;-63
2022/04/05 04:07:06;;;;;;;1999.90;999.90;;;;;;;6.86;81.62;99456.31;15530476;28;20046;-64
2022/04/05 04:14:41;;;;;;;1999.90;999.90;;;;;;;6.89;82.09;99475.06;15544027;28;20061;-62
2022/04/05 04:22:22;;;;;;;1999.90;999.90;;;;;;;6.97;81.76;99487.22;15484377;23;20049;-58
2022/04/05 04:29:56;;;;;;;1512.30;761.08;;;;;;;7.04;81.34;99481.97;15507084;28;20521;-58
2022/04/05 04:37:28;;;;;;;1999.90;999.90;;;;;;;7.14;80.42;99481.53;15535407;28;20037;-60
2022/04/05 04:45:02;;;;;;;1999.90;999.90;;;;;;;7.12;80.59;99489.41;15550544;28;20149;-60
2022/04/05 04:52:40;;;;;;;1999.90;999.90;;;;;;;7.25;79.88;99504.94;15555044;28;20057;-59
2022/04/05 05:00:15;;;;;;;1999.90;999.90;;;;;;;7.21;80.13;99512.34;15539428;28;20470;-57
2022/04/05 05:07:48;;;;;;;1999.90;999.90;;;;;;;7.08;80.24;99518.94;15566427;28;20045;-56
2022/04/05 05:15:28;;;;;;;1999.90;999.90;;;;;;;7.32;79.68;99526.59;15554016;28;20496;-57
2022/04/05 05:23:01;;;;;;;1999.90;999.90;;;;;;;7.37;79.17;99541.06;15551371;28;20115;-58
2022/04/05 05:30:35;;;;;;;1999.90;999.90;;;;;;;7.39;79.08;99549.03;15553558;28;20046;-56
2022/04/05 05:38:17;;;;;;;1999.90;999.90;;;;;;;7.50;78.75;99562.19;15539768;28;20045;-58
2022/04/05 05:45:50;;;;;;;1999.90;999.90;;;;;;;7.61;79.52;99578.41;15532174;28;20084;-57
2022/04/05 05:53:22;;;;;;;1999.90;999.90;;;;;;;7.63;78.62;99587.22;15550595;28;20046;-57
2022/04/05 06:00:56;;;;;;;1999.90;999.90;;;;;;;7.97;77.82;99588.84;15550799;28;20406;-58
2022/04/05 06:08:29;;;;;;;1999.90;999.90;;;;;;;7.57;77.77;99611.59;15561454;28;20397;-56
2022/04/05 06:16:02;;;;;;;1999.90;999.90;;;;;;;7.71;77.86;99622.41;15610421;28;20124;-57
2022/04/05 06:23:35;;;;;;;1999.90;999.90;;;;;;;7.85;76.47;99634.06;15593564;28;20067;-62
2022/04/05 06:31:10;;;;;;;1999.90;999.90;;;;;;;8.23;75.51;99653.28;15594090;28;20044;-54
2022/04/05 06:38:43;;;;;;;1999.90;999.90;;;;;;;8.47;74.39;99665.66;15610688;28;20041;-58
2022/04/05 06:46:18;;;;;;;1999.90;999.90;;;;;;;8.17;74.50;99676.88;15609596;28;20137;-56
2022/04/05 06:53:51;;;;;;;1999.90;999.90;;;;;;;8.37;74.01;99673.28;15608856;28;20041;-57
2022/04/05 07:01:24;;;;;;;1999.90;999.90;;;;;;;8.35;74.43;99697.81;15592601;28;20045;-61
2022/04/05 07:08:56;;;;;;;1999.90;999.90;;;;;;;7.99;72.80;99712.34;15551030;28;20117;-62
2022/04/05 07:16:30;;;;;;;1999.90;999.90;;;;;;;7.93;69.53;99713.72;15534716;28;20054;-55
2022/04/05 07:24:04;;;;;;;1999.90;999.90;;;;;;;8.27;65.77;99706.22;15551531;28;20050;-57
2022/04/05 07:31:38;;;;;;;1999.90;999.90;;;;;;;9.69;61.61;99722.16;15519864;28;20046;-59
2022/04/05 07:39:10;;;;;;;1999.90;999.90;;;;;;;9.98;60.37;99736.91;15544596;28;20061;-59
2022/04/05 07:46:47;;;;;;;1999.90;999.90;;;;;;;11.33;57.01;99745.41;15546783;28;20077;-57
2022/04/05 07:54:19;;;;;;;1999.90;999.90;;;;;;;11.42;54.95;99737.63;15557490;28;20467;-59
2022/04/05 08:01:52;;;;;;;1999.90;999.90;;;;;;;11.27;55.03;99748.47;15547376;28;20280;-63
2022/04/05 08:09:24;;;;;;;1999.90;999.90;;;;;;;12.04;53.22;99764.66;15580229;28;20038;-58
2022/04/05 08:16:58;;;;;;;1999.90;999.90;;;;;;;11.85;53.91;99761.84;15603052;28;20045;-58
2022/04/05 08:24:31;;;;;;;1999.90;999.90;;;;;;;10.93;55.50;99779.88;15498657;28;20507;-57
2022/04/05 08:32:05;;;;;;;1999.90;999.90;;;;;;;11.82;52.70;99796.09;15529504;28;20049;-58
2022/04/05 08:39:38;;;;;;;1999.90;999.90;;;;;;;12.83;49.03;99778.28;15544158;28;20099;-57
2022/04/05 08:47:12;;;;;;;1999.90;999.90;;;;;;;12.15;48.80;99798.47;15615452;28;20064;-56
2022/04/05 08:54:45;;;;;;;1999.90;999.90;;;;;;;12.18;49.35;99805.28;15575489;28;20392;-61
2022/04/05 09:02:25;;;;;;;1999.90;999.90;;;;;;;12.08;50.27;99818.66;15548737;28;20069;-62
2022/04/05 09:10:10;;;;;;;1999.90;999.90;;;;;;;12.22;48.39;99815.41;15536970;28;20038;-57
2022/04/05 09:17:46;;;;;;;1999.90;999.90;;;;;;;13.01;47.93;99818.63;15552569;28;20042;-59
2022/04/05 09:25:21;;;;;;;1999.90;999.90;;;;;;;13.21;46.63;99827.81;15535496;28;20053;-59
2022/04/05 09:33:04;;;;;;;1999.90;999.90;;;;;;;12.67;47.32;99825.94;15548492;28;20088;-56
2022/04/05 09:40:38;;;;;;;1999.90;999.90;;;;;;;11.51;49.21;99824.88;15534035;28;20137;-57
2022/04/05 09:48:15;;;;;;;1999.90;999.90;;;;;;;11.65;50.56;99835.56;15544708;28;20046;-56
2022/04/05 09:56:02;;;;;;;1999.90;999.90;;;;;;;11.68;49.54;99832.06;15536379;28;20053;-56
2022/04/05 10:03:39;;;;;;;1999.90;999.90;;;;;;;11.23;51.13;99836.91;15540024;28;20499;-55
2022/04/05 10:11:12;;;;;;;1999.90;999.90;;;;;;;10.89;51.81;99846.75;15545993;28;20235;-62
2022/04/05 10:18:48;;;;;;;1999.90;999.90;;;;;;;11.26;51.64;99843.78;15526500;28;20137;-61
2022/04/05 10:26:26;;;;;;;1999.90;999.90;;;;;;;13.01;47.19;99851.41;15540424;28;20136;-57
2022/04/05 10:34:10;;;;;;;1999.90;999.90;;;;;;;14.93;44.52;99850.88;15539515;28;20042;-60
2022/04/05 10:41:45;;;;;;;1999.90;999.90;;;;;;;13.00;46.75;99838.59;15515179;28;20145;-60
2022/04/05 10:49:34;;;;;;;1999.90;999.90;;;;;;;11.66;48.96;99840.00;15490108;28;20061;-61
2022/04/05 10:57:29;;;;;;;1999.90;999.90;;;;;;;12.34;48.55;99834.03;15509556;28;20140;-60
2022/04/05 11:05:35;;;;;;;1999.90;999.90;;;;;;;12.42;47.62;99838.63;15528861;28;20050;-62
2022/04/05 11:13:08;;;;;;;1999.90;999.90;;;;;;;11.46;50.29;99836.28;15534467;28;20037;-61
2022/04/05 11:20:44;;;;;;;1999.90;999.90;;;;;;;11.49;50.59;99839.19;15549383;28;20053;-60
2022/04/05 11:28:18;;;;;;;1999.90;999.90;;;;;;;11.04;51.05;99836.78;15544598;28;20321;-60
2022/04/05 11:35:56;;;;;;;1999.90;999.90;;;;;;;10.57;51.97;99836.69;15530572;28;20416;-59
2022/04/05 11:43:32;;;;;;;1999.90;999.90;;;;;;;10.76;52.42;99834.03;15540588;28;20046;-59
2022/04/05 11:51:09;;;;;;;1999.90;999.90;;;;;;;10.97;51.99;99834.63;15550374;28;20050;-60
2022/04/05 11:58:42;;;;;;;1999.90;999.90;;;;;;;11.05;51.34;99827.28;15546790;28;20046;-61
2022/04/05 12:06:23;;;;;;;1999.90;999.90;;;;;;;10.97;51.36;99828.25;15535346;28;20073;-61
2022/04/05 12:13:57;;;;;;;1999.90;999.90;;;;;;;12.54;49.11;99832.88;15549979;28;20525;-60
2022/04/05 12:21:31;;;;;;;1999.90;999.90;;;;;;;12.02;49.97;99830.53;15532244;28;20561;-61
2022/04/05 12:29:04;;;;;;;1999.90;999.90;;;;;;;12.34;49.43;99822.84;15513571;28;21086;-63
2022/04/05 12:36:40;;;;;;;1999.90;999.90;;;;;;;13.17;48.29;99826.13;15536877;28;20504;-59
2022/04/05 12:44:14;;;;;;;1999.90;999.90;;;;;;;12.60;48.21;99825.78;15517983;28;20046;-61
2022/04/05 12:51:49;;;;;;;1999.90;999.90;;;;;;;12.30;48.75;99808.00;15539063;28;20074;-60
2022/04/05 12:59:30;;;;;;;1999.90;999.90;;;;;;;12.18;49.75;99803.31;15534338;28;20491;-61
2022/04/05 13:07:05;;;;;;;1999.90;999.90;;;;;;;12.35;49.07;99804.88;15548190;28;20046;-61
2022/04/05 13:14:38;;;;;;;1999.90;999.90;;;;;;;12.00;51.23;99807.72;15553514;28;20113;-56
2022/04/05 13:22:17;;;;;;;1999.90;999.90;;;;;;;12.09;50.42;99802.72;15548464;28;20618;-60
2022/04/05 13:29:49;;;;;;;1999.90;999.90;;;;;;;12.40;50.39;99798.97;15543359;28;20046;-61
2022/04/05 13:37:24;;;;;;;1999.90;999.90;;;;;;;12.19;52.55;99804.91;15554661;28;20049;-61
2022/04/05 13:44:56;;;;;;;1999.90;999.90;;;;;;;11.52;56.39;99806.94;15529068;28;20148;-60
2022/04/05 13:52:33;;;;;;;1999.90;999.90;;;;;;;11.30;58.71;99825.13;15541055;28;20054;-58
2022/04/05 14:00:07;;;;;;;1999.90;999.90;;;;;;;11.10;60.51;99821.41;15545499;28;20046;-61
2022/04/05 14:07:44;;;;;;;1999.90;999.90;;;;;;;11.75;62.19;99807.09;15547399;28;20466;-62
2022/04/05 14:15:16;;;;;;;;;;;;;;;11.69;61.49;99794.56;15542644;28;20054;-62
2022/04/05 14:22:50;;;;;;;1999.90;999.90;;;;;;;11.44;62.43;99794.75;15546412;28;19925;-60
2022/04/05 14:30:23;;;;;;;;;;;;;;;11.78;61.98;99786.81;15509589;28;20049;-60
2022/04/05 14:37:56;;;;;;;1999.90;999.90;;;;;;;11.60;63.44;99785.56;15537026;28;19976;-60
2022/04/05 14:45:29;;;;;;;;;;;;;;;11.79;62.99;99780.88;15546240;28;20060;-58
2022/04/05 14:53:02;;;;;;;1999.90;999.90;;;;;;;11.65;63.56;99768.50;15543878;28;20102;-61
2022/04/05 15:00:35;;;;;;;1999.90;999.90;;;;;;;10.76;67.10;99760.69;15547004;28;20149;-60
2022/04/05 15:08:09;;;;;;;1999.90;999.90;;;;;;;11.04;66.79;99758.63;15547080;28;20096;-58
2022/04/05 15:15:42;;;;;;;1999.90;999.90;;;;;;;10.94;65.71;99748.84;15547192;28;20136;-58
2022/04/05 15:23:15;;;;;;;1999.90;999.90;;;;;;;11.11;65.47;99753.25;15558995;28;20041;-62
2022/04/05 15:30:47;;;;;;;1999.90;999.90;;;;;;;10.93;65.69;99741.59;15540299;28;20352;-62
2022/04/05 15:38:21;;;;;;;1999.90;999.90;;;;;;;11.30;63.33;99743.34;15525560;28;20050;-61
2022/04/05 15:45:53;;;;;;;1999.90;999.90;;;;;;;10.67;65.00;99741.31;15540348;28;20046;-61
2022/04/05 15:53:28;;;;;;;1999.90;999.90;;;;;;;11.29;64.22;99736.94;15531126;28;20156;-59
2022/04/05 16:01:02;;;;;;;1999.90;999.90;;;;;;;10.89;64.63;99754.66;15532188;28;20476;-60
2022/04/05 16:08:36;;;;;;;1999.90;999.90;;;;;;;10.88;66.15;99741.06;15543479;28;20566;-62
2022/04/05 16:16:09;;;;;;;1999.90;999.90;;;;;;;10.75;66.91;99737.56;15532307;28;20053;-60
2022/04/05 16:23:42;;;;;;;1999.90;999.90;;;;;;;10.84;66.42;99731.81;15597076;23;20045;-62
2022/04/05 16:31:15;;;;;;;1999.90;999.90;;;;;;;10.92;66.27;99725.22;15600049;28;20308;-62
2022/04/05 16:38:48;;;;;;;1999.90;999.90;;;;;;;10.99;66.85;99714.25;15614384;28;20057;-62
2022/04/05 16:46:21;;;;;;;;;;;;;;;11.40;66.00;99724.03;15612843;28;20041;-61
2022/04/05 16:53:55;;;;;;;1999.90;999.90;;;;;;;11.24;66.76;99712.06;15609271;28;19960;-58
2022/04/05 17:01:27;;;;;;;1999.90;999.90;;;;;;;10.98;67.35;99693.91;15614392;28;20150;-61
2022/04/05 17:09:01;;;;;;;1999.90;999.90;;;;;;;11.38;66.97;99706.84;15587866;28;20140;-60
2022/04/05 17:16:35;;;;;;;1999.90;999.90;;;;;;;11.21;66.80;99698.84;15590721;28;20053;-60
2022/04/05 17:24:09;;;;;;;1999.90;999.90;;;;;;;11.25;67.41;99691.34;15652638;28;20556;-61
2022/04/05 17:31:43;;;;;;;1999.90;999.90;;;;;;;11.20;68.61;99691.63;15636137;28;20328;-64
2022/04/05 17:39:16;;;;;;;1999.90;999.90;;;;;;;11.06;69.40;99694.91;15642243;28;20137;-62
2022/04/05 17:46:49;;;;;;;1999.90;999.90;;;;;;;11.09;70.29;99688.59;15605154;28;20052;-62
2022/04/05 17:54:23;;;;;;;1999.90;999.90;;;;;;;10.85;71.09;99669.25;15603833;28;20525;-61
2022/04/05 18:01:55;;;;;;;1999.90;999.90;;;;;;;10.98;71.10;99663.19;15605126;28;20048;-64
2022/04/05 18:09:29;;;;;;;1999.90;999.90;;;;;;;10.96;71.10;99664.75;15602406;28;20092;-60
2022/04/05 18:17:03;;;;;;;1999.90;999.90;;;;;;;10.94;71.86;99672.63;15622563;28;20103;-59
2022/04/05 18:24:41;;;;;;;1999.90;999.90;;;;;;;11.04;71.88;99668.50;15572948;28;20045;-61
2022/04/05 18:32:14;;;;;;;1999.90;999.90;;;;;;;10.84;72.86;99671.22;15615461;28;20041;-62
2022/04/05 18:39:49;;;;;;;1999.90;999.90;;;;;;;10.73;73.72;99674.88;15615600;28;20490;-60
2022/04/05 18:47:24;;;;;;;1537.15;784.00;;;;;;;10.65;74.32;99666.34;15615301;28;20049;-58
2022/04/05 18:54:58;;;;;;;630.00;367.73;;;;;;;10.58;75.45;99684.88;15613002;28;20128;-60
2022/04/05 19:02:30;;;;;;;;;;;;;;;10.61;76.39;99684.16;15633210;28;20083;-61
2022/04/05 19:10:05;;;;;;;185.63;170.18;;;;;;;10.70;76.94;99688.38;15624976;28;19968;-55
2022/04/05 19:17:37;;;;;;;274.40;250.40;;;;;;;10.61;77.72;99675.78;15639293;28;20053;-59
2022/04/05 19:25:13;;;;;;;355.17;326.13;;;;;;;10.54;78.56;99668.06;15616474;28;20091;-58
2022/04/05 19:32:45;;;;;;;341.20;311.42;;;;;;;10.43;79.52;99678.13;15628989;28;20046;-57
2022/04/05 19:40:19;;;;;;;369.45;336.05;;;;;;;10.45;79.95;99684.13;15628540;28;20041;-63
2022/04/05 19:47:52;;;;;;;;;;;;;;;10.58;79.62;99679.28;15609057;28;20125;-59
2022/04/05 19:55:26;;;;;;;405.70;372.03;;;;;;;10.40;80.83;99671.25;15626107;28;19921;-62
2022/04/05 20:02:59;;;;;;;399.55;366.80;;;;;;;10.55;80.48;99671.66;15607523;28;20041;-61
2022/04/05 20:10:36;;;;;;;413.38;376.25;;;;;;;10.56;81.18;99657.34;15633481;28;20038;-59
2022/04/05 20:26:00;;;;;;;440.92;401.88;;;;;;;10.38;82.06;99667.22;15623584;28;20111;-62
2022/04/05 20:33:34;;;;;;;369.98;336.75;;;;;;;10.53;82.16;99660.84;15623249;28;20045;-61
2022/04/05 20:41:08;;;;;;;398.27;364.13;;;;;;;10.74;81.36;99648.63;15626158;28;20037;-62
2022/04/05 20:48:41;;;;;;;415.40;378.60;;;;;;;10.48;83.47;99643.56;15660316;28;20049;-61
2022/04/05 20:56:14;;;;;;;479.50;436.33;;;;;;;10.32;84.83;99644.38;15622190;28;20390;-61
2022/04/05 21:03:47;;;;;;;363.75;332.60;;;;;;;10.84;82.71;99643.31;15651203;28;20037;-60
2022/04/05 21:11:21;;;;;;;385.97;351.40;;;;;;;10.95;82.22;99641.59;15620874;28;20044;-62
2022/04/05 21:18:54;;;;;;;418.13;383.52;;;;;;;11.14;82.02;99640.03;15637052;28;20048;-62
2022/04/05 21:26:28;;;;;;;414.05;376.45;;;;;;;10.88;83.13;99641.41;15620817;28;20124;-60
2022/04/05 21:34:00;;;;;;;402.77;365.80;;;;;;;10.78;83.54;99644.75;15586033;28;20049;-60
2022/04/05 21:41:33;;;;;;;454.90;409.25;;;;;;;10.51;85.93;99649.22;15618838;28;20054;-62
2022/04/05 21:49:05;;;;;;;;;;;;;;;10.94;83.82;99651.16;15615128;28;20493;-60
2022/04/05 21:56:39;;;;;;;478.38;435.15;;;;;;;10.60;85.76;99646.28;15626005;28;19929;-61
2022/04/05 22:04:12;;;;;;;;;;;;;;;10.96;84.62;99650.78;15600356;28;20041;-60
2022/04/05 22:11:45;;;;;;;521.90;477.10;;;;;;;10.69;86.46;99649.69;15602417;28;19921;-63
2022/04/05 22:19:18;;;;;;;448.13;409.25;;;;;;;11.04;85.23;99632.19;15567433;28;20135;-61
2022/04/05 22:26:54;;;;;;;400.77;367.70;;;;;;;11.24;85.39;99645.84;15637203;28;20171;-63
2022/04/05 22:34:27;;;;;;;454.88;416.40;;;;;;;10.97;86.09;99638.44;15634164;28;20145;-61
2022/04/05 22:42:00;;;;;;;495.15;453.08;;;;;;;11.10;85.62;99645.53;15621989;28;20490;-64
2022/04/05 22:49:32;;;;;;;470.70;430.88;;;;;;;10.88;87.09;99644.22;15618311;28;20084;-64
2022/04/05 22:57:06;;;;;;;448.00;410.98;;;;;;;11.13;86.08;99644.00;15632833;28;20124;-62
2022/04/05 23:04:38;;;;;;;495.23;452.35;;;;;;;11.21;85.90;99646.59;15609429;28;20041;-63
2022/04/05 23:12:12;;;;;;;451.15;411.73;;;;;;;11.24;86.33;99651.44;15595965;28;20049;-63
2022/04/05 23:19:45;;;;;;;463.85;426.45;;;;;;;11.43;85.25;99652.66;15629615;28;20041;-61
2022/04/05 23:27:18;;;;;;;471.77;431.77;;;;;;;11.41;85.31;99643.84;15628696;28;20533;-63
2022/04/05 23:34:51;;;;;;;445.23;409.48;;;;;;;11.44;84.81;99649.50;15646764;28;20459;-61
2022/04/05 23:42:24;;;;;;;441.83;404.85;;;;;;;11.57;84.30;99625.88;15629874;28;20132;-63
2022/04/05 23:49:56;;;;;;;463.70;423.65;;;;;;;11.44;85.29;99627.16;15612263;28;20124;-62
2022/04/05 23:57:30;;;;;;;389.77;358.30;;;;;;;11.45;85.69;99623.19;15627397;28;20045;-62
